Time;durP1;ratioP1;P1;durP2;ratioP2;P2;SDS_P1;SDS_P2;PMS_P1;PMS_P2;Temp;Humidity;BMP_temperature;BMP_pressure;BME280_temperature;BME280_humidity;BME280_pressure;Samples;Min_cycle;Max_cycle;Signal;HPM_P1;HPM_P2
2022/12/15 00:39:36;;;;;;;0.40;0.40;;;-9.30;99.90;;;;;;5013750;28;20220;-73
2022/12/15 00:42:04;;;;;;;0.30;0.30;;;-9.30;99.90;;;;;;5024201;28;20212;-74
2022/12/15 00:44:31;;;;;;;0.35;0.35;;;-9.40;99.90;;;;;;5019162;28;20227;-73
2022/12/15 00:46:58;;;;;;;0.40;0.40;;;-9.40;99.90;;;;;;5020242;28;20228;-73
2022/12/15 01:22:28;;;;;;;0.30;0.30;;;-9.60;99.90;;;;;;5015735;28;20195;-72
2022/12/15 01:24:55;;;;;;;0.30;0.30;;;-9.60;99.90;;;;;;5017975;28;20290;-72
2022/12/15 01:27:22;;;;;;;0.35;0.35;;;-9.50;99.90;;;;;;5015700;28;20220;-73
2022/12/15 01:29:49;;;;;;;0.50;0.50;;;-9.50;99.90;;;;;;4992412;28;20200;-73
2022/12/15 01:32:16;;;;;;;0.40;0.40;;;-9.50;99.90;;;;;;4998615;28;20219;-72
2022/12/15 01:34:45;;;;;;;0.30;0.30;;;-9.40;99.90;;;;;;5004448;28;20289;-72
2022/12/15 01:37:11;;;;;;;0.30;0.30;;;-9.40;99.90;;;;;;5016598;28;20307;-74
2022/12/15 01:42:23;;;;;;;0.30;0.30;;;-9.50;99.90;;;;;;4998231;28;20222;-75
2022/12/15 01:44:52;;;;;;;0.30;0.30;;;-9.50;99.90;;;;;;4998353;28;20295;-73
2022/12/15 01:47:24;;;;;;;0.40;0.40;;;-9.50;99.90;;;;;;5001765;28;20228;-74
2022/12/15 01:49:54;;;;;;;0.30;0.30;;;-9.50;99.90;;;;;;5005279;28;20210;-72
2022/12/15 01:52:21;;;;;;;0.40;0.40;;;-9.60;99.90;;;;;;4998827;28;20234;-74
2022/12/15 01:54:54;;;;;;;0.30;0.30;;;-9.50;99.90;;;;;;4992550;28;20687;-73
2022/12/15 01:57:25;;;;;;;0.40;0.40;;;-9.60;99.90;;;;;;5015401;28;20231;-73
2022/12/15 01:59:56;;;;;;;0.40;0.40;;;-9.60;99.90;;;;;;4999340;28;20200;-73
2022/12/15 02:02:29;;;;;;;0.30;0.30;;;-9.50;99.90;;;;;;5003566;28;20288;-73
2022/12/15 02:04:59;;;;;;;0.40;0.40;;;-9.50;99.90;;;;;;4999315;28;20212;-72
2022/12/15 02:07:27;;;;;;;0.40;0.40;;;-9.50;99.90;;;;;;5013542;28;20250;-73
2022/12/15 02:09:57;;;;;;;0.30;0.30;;;-9.50;99.90;;;;;;5016641;28;20689;-74
2022/12/15 02:12:34;;;;;;;0.30;0.30;;;-9.50;99.90;;;;;;5012976;28;20221;-73
2022/12/15 02:15:14;;;;;;;0.40;0.40;;;-9.50;99.90;;;;;;5014662;28;20212;-73
2022/12/15 02:17:51;;;;;;;0.40;0.40;;;-9.40;99.90;;;;;;4999354;28;20278;-73
2022/12/15 02:20:47;;;;;;;0.30;0.30;;;-9.50;99.90;;;;;;5015125;28;20202;-74
2022/12/15 02:23:39;;;;;;;0.30;0.30;;;-9.50;99.90;;;;;;4997810;28;20211;-74
2022/12/15 02:26:58;;;;;;;0.40;0.40;;;-9.50;99.90;;;;;;5011815;28;20212;-72
2022/12/15 02:29:52;;;;;;;0.30;0.30;;;-9.50;99.90;;;;;;4972680;28;20201;-74
2022/12/15 02:32:24;;;;;;;0.30;0.30;;;-9.50;99.90;;;;;;5012446;28;20240;-74
2022/12/15 02:34:56;;;;;;;0.40;0.40;;;-9.50;99.90;;;;;;5013463;28;20226;-73
2022/12/15 02:37:26;;;;;;;0.35;0.35;;;-9.40;99.90;;;;;;5015152;28;20213;-74
2022/12/15 02:39:53;;;;;;;0.38;0.38;;;-9.50;99.90;;;;;;5000361;28;20208;-74
2022/12/15 02:42:22;;;;;;;0.40;0.40;;;-9.50;99.90;;;;;;5003725;28;20253;-73
2022/12/15 02:44:54;;;;;;;0.30;0.30;;;-9.50;99.90;;;;;;5000831;28;20208;-72
2022/12/15 02:47:34;;;;;;;0.35;0.35;;;-9.50;99.90;;;;;;5014580;28;20282;-73
2022/12/15 02:50:26;;;;;;;0.40;0.40;;;-9.50;99.90;;;;;;4998992;28;20245;-73
2022/12/15 02:53:06;;;;;;;0.40;0.40;;;-9.50;99.90;;;;;;5003722;28;20316;-74
2022/12/15 02:55:42;;;;;;;0.40;0.40;;;-9.50;99.90;;;;;;5004157;28;20225;-73
2022/12/15 02:58:19;;;;;;;0.40;0.40;;;-9.40;99.90;;;;;;5000947;28;20192;-72
2022/12/15 03:00:52;;;;;;;0.38;0.38;;;-9.50;99.90;;;;;;5016408;28;20212;-74
2022/12/15 03:03:22;;;;;;;0.30;0.30;;;-9.50;99.90;;;;;;4997384;28;20220;-73
2022/12/15 03:05:52;;;;;;;0.40;0.40;;;-9.50;99.90;;;;;;5000420;28;20228;-73
2022/12/15 03:08:19;;;;;;;0.40;0.40;;;-9.50;99.90;;;;;;5019476;28;20242;-72
2022/12/15 03:10:49;;;;;;;0.30;0.30;;;-9.50;99.90;;;;;;5010559;28;20322;-74
2022/12/15 03:13:16;;;;;;;0.40;0.40;;;;;;;;;;5004518;28;20240;-73
2022/12/15 03:15:44;;;;;;;0.40;0.40;;;;;;;;;;5020220;28;20328;-73
2022/12/15 03:18:11;;;;;;;0.40;0.40;;;-9.60;99.90;;;;;;4999874;28;20208;-73
2022/12/15 03:20:39;;;;;;;0.40;0.40;;;-9.60;99.90;;;;;;5003444;28;20219;-74
2022/12/15 03:23:07;;;;;;;0.40;0.40;;;;;;;;;;5003039;28;20208;-75
2022/12/15 03:25:34;;;;;;;0.35;0.35;;;;;;;;;;5016599;28;20216;-73
2022/12/15 03:28:01;;;;;;;0.40;0.40;;;-9.50;99.90;;;;;;5018497;28;20205;-73
2022/12/15 03:30:28;;;;;;;0.30;0.30;;;-9.80;99.90;;;;;;5000333;28;20323;-72
2022/12/15 03:32:55;;;;;;;0.40;0.40;;;-9.70;99.90;;;;;;5019656;28;20234;-73
2022/12/15 03:35:22;;;;;;;0.30;0.30;;;-9.50;99.90;;;;;;5004500;28;20217;-73
2022/12/15 03:37:50;;;;;;;0.40;0.40;;;-9.70;99.90;;;;;;5017789;28;20196;-73
2022/12/15 03:40:17;;;;;;;0.40;0.40;;;-9.70;99.90;;;;;;4997973;28;20209;-73
2022/12/15 03:42:48;;;;;;;0.30;0.30;;;-9.70;99.90;;;;;;5015994;28;20254;-73
2022/12/15 03:45:15;;;;;;;0.40;0.40;;;-9.70;99.90;;;;;;5007410;28;20666;-73
2022/12/15 03:47:42;;;;;;;0.40;0.40;;;-9.70;99.90;;;;;;5005616;28;20208;-73
2022/12/15 03:50:11;;;;;;;0.30;0.30;;;-9.70;99.90;;;;;;5016988;28;20200;-73
2022/12/15 03:52:38;;;;;;;0.40;0.40;;;-9.70;99.90;;;;;;5014967;28;20228;-73
2022/12/15 03:55:08;;;;;;;0.40;0.40;;;-9.70;99.90;;;;;;5017085;28;20211;-74
2022/12/15 03:57:36;;;;;;;0.30;0.30;;;-9.70;99.90;;;;;;5015950;28;20196;-73
2022/12/15 04:00:03;;;;;;;0.40;0.40;;;-9.70;99.90;;;;;;4992869;28;20204;-71
2022/12/15 04:02:39;;;;;;;0.30;0.30;;;-9.70;99.90;;;;;;5016625;28;20199;-72
2022/12/15 04:05:07;;;;;;;0.30;0.30;;;-9.70;99.90;;;;;;4995861;28;20235;-73
2022/12/15 04:07:34;;;;;;;0.40;0.40;;;-9.70;99.90;;;;;;4999197;28;20204;-73
2022/12/15 04:10:01;;;;;;;0.30;0.30;;;-9.70;99.90;;;;;;5001579;28;20208;-72
2022/12/15 04:12:30;;;;;;;0.30;0.30;;;-9.70;99.90;;;;;;5016798;28;20223;-73
2022/12/15 04:14:57;;;;;;;0.40;0.40;;;-9.80;99.90;;;;;;5002001;28;20219;-73
2022/12/15 04:17:24;;;;;;;0.30;0.30;;;-9.80;99.90;;;;;;4996977;28;20310;-73
2022/12/15 04:22:35;;;;;;;0.40;0.40;;;-9.80;99.90;;;;;;5004428;28;20213;-73
2022/12/15 05:33:54;;;;;;;0.40;0.40;;;-9.70;99.90;;;;;;5017978;28;20207;-73
2022/12/15 05:36:21;;;;;;;0.40;0.40;;;-9.70;99.90;;;;;;5018378;28;20298;-74
2022/12/15 05:38:49;;;;;;;0.40;0.40;;;-9.70;99.90;;;;;;5017502;28;20204;-74
2022/12/15 05:41:18;;;;;;;0.40;0.40;;;-9.70;99.90;;;;;;5018077;28;20216;-74
2022/12/15 05:43:45;;;;;;;0.40;0.40;;;-9.70;99.90;;;;;;5017954;28;20205;-73
2022/12/15 05:46:13;;;;;;;0.38;0.38;;;-9.60;99.90;;;;;;5017975;28;20270;-73
2022/12/15 05:48:41;;;;;;;0.30;0.30;;;-9.60;99.90;;;;;;5014336;28;20200;-73
2022/12/15 05:51:10;;;;;;;0.40;0.40;;;-9.50;99.90;;;;;;4996275;28;20210;-75
2022/12/15 05:53:39;;;;;;;0.40;0.40;;;-9.40;99.90;;;;;;4995760;28;20217;-74
2022/12/15 05:56:08;;;;;;;0.40;0.40;;;-9.40;99.90;;;;;;4995954;28;20224;-74
2022/12/15 05:58:35;;;;;;;0.35;0.35;;;-9.40;99.90;;;;;;5002246;28;20206;-73
2022/12/15 06:01:04;;;;;;;0.40;0.40;;;-9.40;99.90;;;;;;5022296;28;20760;-75
2022/12/15 06:03:31;;;;;;;0.30;0.30;;;-9.30;99.90;;;;;;5018021;28;20208;-74
2022/12/15 06:06:00;;;;;;;0.30;0.30;;;-9.30;99.90;;;;;;5032893;28;20761;-75
2022/12/15 06:08:29;;;;;;;0.30;0.30;;;-9.30;99.90;;;;;;4996784;28;20208;-74
2022/12/15 06:10:57;;;;;;;0.30;0.30;;;-9.30;99.90;;;;;;5015465;28;20291;-73
2022/12/15 06:13:24;;;;;;;0.30;0.30;;;-9.30;99.90;;;;;;5006727;28;20279;-74
2022/12/15 06:15:56;;;;;;;0.30;0.30;;;-9.30;99.90;;;;;;5018060;28;20368;-73
2022/12/15 06:18:24;;;;;;;0.30;0.30;;;-9.30;99.90;;;;;;5017292;28;20269;-73
2022/12/15 06:20:58;;;;;;;0.40;0.40;;;-9.30;99.90;;;;;;5016009;28;20208;-74
2022/12/15 06:23:26;;;;;;;0.30;0.30;;;-9.30;99.90;;;;;;5019641;28;20622;-74
2022/12/15 06:25:55;;;;;;;0.30;0.30;;;-9.30;99.90;;;;;;5029942;28;20223;-73
2022/12/15 06:28:23;;;;;;;0.30;0.30;;;-9.20;99.90;;;;;;5019544;28;20278;-72
2022/12/15 06:30:55;;;;;;;0.30;0.30;;;-9.20;99.90;;;;;;5004623;28;20210;-71
2022/12/15 06:33:23;;;;;;;0.30;0.30;;;-9.20;99.90;;;;;;5012528;28;20220;-70
2022/12/15 06:35:51;;;;;;;0.30;0.30;;;-9.20;99.90;;;;;;5007571;28;20254;-72
2022/12/15 06:38:18;;;;;;;0.30;0.30;;;-9.20;99.90;;;;;;5026798;28;20278;-71
2022/12/15 06:40:46;;;;;;;0.32;0.32;;;-9.10;99.90;;;;;;5009198;28;20223;-71
2022/12/15 06:43:14;;;;;;;0.30;0.30;;;-9.10;99.90;;;;;;5001867;28;20239;-73
2022/12/15 06:45:48;;;;;;;0.40;0.40;;;-9.10;99.90;;;;;;5011545;28;20254;-72
2022/12/15 06:48:15;;;;;;;0.40;0.40;;;-9.10;99.90;;;;;;4994393;28;20196;-72
2022/12/15 06:50:42;;;;;;;0.30;0.30;;;-9.10;99.90;;;;;;5010342;28;20302;-71
2022/12/15 06:53:09;;;;;;;0.30;0.30;;;-9.00;99.90;;;;;;5020737;28;20212;-72
2022/12/15 06:55:36;;;;;;;0.30;0.30;;;-9.00;99.90;;;;;;4994839;28;20225;-71
2022/12/15 06:58:03;;;;;;;0.30;0.30;;;-8.90;99.90;;;;;;4998604;28;20282;-73
2022/12/15 07:00:33;;;;;;;0.30;0.30;;;-8.90;99.90;;;;;;5020138;28;20204;-74
2022/12/15 07:03:01;;;;;;;0.30;0.30;;;-8.80;99.90;;;;;;4997889;28;20196;-73
2022/12/15 07:05:28;;;;;;;0.30;0.30;;;-8.80;99.90;;;;;;5005685;28;20231;-74
2022/12/15 07:07:55;;;;;;;0.30;0.30;;;-8.80;99.90;;;;;;5014492;28;20689;-75
2022/12/15 07:10:22;;;;;;;0.30;0.30;;;-8.80;99.90;;;;;;5027546;28;20200;-75
2022/12/15 07:12:50;;;;;;;0.30;0.30;;;-8.70;99.90;;;;;;5014686;28;20220;-73
2022/12/15 07:15:17;;;;;;;0.30;0.30;;;-8.70;99.90;;;;;;5026315;28;20220;-75
2022/12/15 07:17:45;;;;;;;0.30;0.30;;;-8.70;99.90;;;;;;5020416;28;20211;-75
2022/12/15 07:20:13;;;;;;;0.30;0.30;;;-8.70;99.90;;;;;;5015817;28;20201;-74
2022/12/15 07:22:40;;;;;;;0.32;0.32;;;-8.70;99.90;;;;;;5028828;28;20192;-73
2022/12/15 07:25:09;;;;;;;0.30;0.30;;;-8.60;99.90;;;;;;5024370;28;20188;-74
2022/12/15 07:27:36;;;;;;;0.32;0.32;;;-8.60;99.90;;;;;;5026441;28;20201;-75
2022/12/15 07:30:03;;;;;;;0.30;0.30;;;-8.60;99.90;;;;;;5020918;28;20205;-73
2022/12/15 07:32:30;;;;;;;0.30;0.30;;;-8.60;99.90;;;;;;5014322;28;20252;-75
2022/12/15 07:34:59;;;;;;;0.30;0.30;;;-8.60;99.90;;;;;;5011896;28;20239;-73
2022/12/15 07:37:29;;;;;;;0.30;0.30;;;-8.60;99.90;;;;;;5029396;28;20221;-74
2022/12/15 07:39:56;;;;;;;0.30;0.30;;;-8.60;99.90;;;;;;5019421;28;20207;-73
2022/12/15 07:42:23;;;;;;;0.30;0.30;;;-8.60;99.90;;;;;;5006221;28;20189;-74
2022/12/15 07:44:50;;;;;;;0.30;0.30;;;-8.60;99.90;;;;;;5023692;28;20200;-71
2022/12/15 07:47:17;;;;;;;0.30;0.30;;;-8.50;99.90;;;;;;5010784;28;20215;-72
2022/12/15 07:49:44;;;;;;;0.30;0.30;;;-8.50;99.90;;;;;;5025364;28;20204;-72
2022/12/15 07:52:13;;;;;;;0.30;0.30;;;-8.50;99.90;;;;;;5029472;28;20200;-71
2022/12/15 07:54:40;;;;;;;0.30;0.30;;;-8.40;99.90;;;;;;5011276;28;20203;-71
2022/12/15 07:57:07;;;;;;;0.30;0.30;;;-8.40;99.90;;;;;;5022112;28;20769;-73
2022/12/15 07:59:35;;;;;;;0.30;0.30;;;-8.40;99.90;;;;;;5010196;28;20282;-72
2022/12/15 08:02:03;;;;;;;0.30;0.30;;;-8.30;99.90;;;;;;5024800;28;20269;-74
2022/12/15 08:04:30;;;;;;;0.30;0.30;;;-8.20;99.90;;;;;;5032838;28;20188;-71
2022/12/15 08:06:57;;;;;;;0.30;0.30;;;-8.20;99.90;;;;;;5023636;28;20322;-73
2022/12/15 08:09:25;;;;;;;0.30;0.30;;;-8.10;99.90;;;;;;5012355;28;20208;-72
2022/12/15 08:11:52;;;;;;;0.30;0.30;;;-8.00;99.90;;;;;;5003998;28;20237;-74
2022/12/15 08:14:19;;;;;;;0.30;0.30;;;-7.90;99.90;;;;;;5002739;28;20706;-74
2022/12/15 08:16:47;;;;;;;0.30;0.30;;;-7.80;99.90;;;;;;5012046;28;20285;-72
2022/12/15 08:19:15;;;;;;;0.22;0.22;;;-7.60;99.90;;;;;;5014559;28;20212;-73
2022/12/15 08:21:45;;;;;;;0.30;0.30;;;-7.50;99.90;;;;;;4999002;28;20214;-73
2022/12/15 08:24:13;;;;;;;0.30;0.30;;;-7.30;99.90;;;;;;5004536;28;20197;-72
2022/12/15 08:26:43;;;;;;;0.30;0.30;;;-7.10;99.90;;;;;;4999178;28;20256;-72
2022/12/15 08:29:12;;;;;;;0.30;0.30;;;-6.90;99.90;;;;;;5018844;28;20207;-72
2022/12/15 08:31:40;;;;;;;0.30;0.30;;;-6.80;99.90;;;;;;5010344;28;20200;-73
2022/12/15 08:34:07;;;;;;;0.30;0.30;;;-6.60;99.90;;;;;;5005333;28;20211;-73
2022/12/15 08:36:34;;;;;;;0.30;0.30;;;-6.50;99.90;;;;;;5011905;28;20212;-74
2022/12/15 08:39:02;;;;;;;0.30;0.30;;;-6.30;99.90;;;;;;5007934;28;20200;-72
2022/12/15 08:41:31;;;;;;;0.30;0.30;;;-6.30;99.90;;;;;;5019203;28;20214;-73
2022/12/15 08:44:01;;;;;;;0.22;0.22;;;-6.20;99.90;;;;;;5020617;28;20231;-74
2022/12/15 08:46:30;;;;;;;0.20;0.20;;;-6.10;99.90;;;;;;5013833;28;20216;-72
2022/12/15 08:48:57;;;;;;;0.20;0.20;;;-6.10;99.90;;;;;;5020737;28;20234;-72
2022/12/15 08:51:26;;;;;;;0.30;0.30;;;-6.00;99.90;;;;;;5028279;28;20274;-72
2022/12/15 08:53:54;;;;;;;0.20;0.20;;;-5.90;99.90;;;;;;5023651;28;20220;-72
2022/12/15 08:56:23;;;;;;;0.30;0.30;;;-5.80;99.90;;;;;;5019694;28;20252;-72
2022/12/15 08:58:54;;;;;;;0.20;0.20;;;-5.70;99.90;;;;;;5021518;28;20279;-72
2022/12/15 09:01:24;;;;;;;0.20;0.20;;;-5.60;99.90;;;;;;5006275;28;20293;-72
2022/12/15 09:03:52;;;;;;;0.30;0.30;;;-5.60;99.90;;;;;;5027551;28;20199;-72
2022/12/15 09:06:22;;;;;;;0.30;0.30;;;-5.50;99.90;;;;;;4994151;28;20240;-72
2022/12/15 09:08:49;;;;;;;0.20;0.20;;;-5.40;99.90;;;;;;5005756;28;20347;-72
2022/12/15 09:11:19;;;;;;;0.20;0.20;;;-5.40;99.90;;;;;;5008313;28;20219;-74
2022/12/15 09:13:46;;;;;;;0.40;0.40;;;-5.30;99.90;;;;;;5004937;28;20220;-73
2022/12/15 09:16:16;;;;;;;0.30;0.30;;;-5.20;99.90;;;;;;5010513;28;20232;-72
2022/12/15 09:18:46;;;;;;;0.20;0.20;;;-5.10;99.90;;;;;;5004280;28;20212;-73
2022/12/15 09:21:14;;;;;;;0.30;0.30;;;-5.00;99.90;;;;;;5005401;28;20218;-72
2022/12/15 09:23:41;;;;;;;0.30;0.30;;;-4.90;99.90;;;;;;5022764;28;20196;-73
2022/12/15 09:26:13;;;;;;;0.20;0.20;;;-4.90;99.90;;;;;;5008027;28;20323;-72
2022/12/15 09:28:41;;;;;;;0.30;0.30;;;-4.80;99.90;;;;;;5011403;28;20218;-73
2022/12/15 09:31:11;;;;;;;0.30;0.30;;;-4.80;99.90;;;;;;5021356;28;20246;-74
2022/12/15 09:33:38;;;;;;;0.30;0.30;;;-4.70;99.90;;;;;;5009309;28;20230;-74
2022/12/15 09:36:08;;;;;;;0.30;0.30;;;-4.70;99.90;;;;;;5023975;28;20235;-73
2022/12/15 09:38:37;;;;;;;0.20;0.20;;;-4.60;99.90;;;;;;5013498;28;20193;-73
2022/12/15 09:41:08;;;;;;;0.28;0.28;;;-4.60;99.90;;;;;;5012792;28;20197;-72
2022/12/15 09:43:40;;;;;;;0.30;0.30;;;-4.50;99.90;;;;;;5003484;28;20254;-72
2022/12/15 09:46:16;;;;;;;0.20;0.20;;;-4.50;99.90;;;;;;5019476;28;20228;-72
2022/12/15 09:48:45;;;;;;;0.20;0.20;;;-4.40;99.90;;;;;;5003848;28;20283;-74
2022/12/15 09:51:17;;;;;;;0.30;0.30;;;-4.40;99.90;;;;;;5021298;28;20202;-73
2022/12/15 09:53:46;;;;;;;0.20;0.20;;;-4.30;99.90;;;;;;5001273;28;20315;-74
2022/12/15 09:56:18;;;;;;;0.20;0.20;;;-4.20;99.90;;;;;;5005714;28;20262;-73
2022/12/15 09:58:56;;;;;;;0.30;0.30;;;-4.10;99.90;;;;;;5012176;28;20200;-73
2022/12/15 10:01:32;;;;;;;0.20;0.20;;;-4.10;99.90;;;;;;5026502;28;20191;-73
2022/12/15 10:04:07;;;;;;;0.30;0.30;;;-4.00;99.90;;;;;;5044804;28;20245;-73
2022/12/15 10:06:41;;;;;;;0.30;0.30;;;-3.90;99.90;;;;;;5033569;28;20211;-72
2022/12/15 10:09:19;;;;;;;0.20;0.20;;;-3.80;99.90;;;;;;5025535;28;20188;-73
2022/12/15 10:11:52;;;;;;;0.20;0.20;;;-3.70;99.90;;;;;;5013229;28;20224;-72
2022/12/15 10:14:27;;;;;;;0.30;0.30;;;-3.60;99.90;;;;;;5015502;28;20212;-72
2022/12/15 10:17:02;;;;;;;0.20;0.20;;;-3.50;99.90;;;;;;5008793;28;20357;-73
2022/12/15 10:19:41;;;;;;;0.20;0.20;;;-3.30;99.90;;;;;;5025184;28;20203;-73
2022/12/15 10:22:15;;;;;;;0.20;0.20;;;-3.30;99.90;;;;;;5011242;28;20250;-73
2022/12/15 10:24:43;;;;;;;0.20;0.20;;;-3.20;99.90;;;;;;5009924;28;20200;-74
2022/12/15 10:27:22;;;;;;;0.20;0.20;;;-3.10;99.90;;;;;;5017232;28;20302;-73
2022/12/15 10:29:57;;;;;;;0.20;0.20;;;-3.00;99.90;;;;;;5019588;28;20196;-73
2022/12/15 10:32:34;;;;;;;0.20;0.20;;;-2.90;99.90;;;;;;5022735;28;20200;-72
2022/12/15 10:35:01;;;;;;;0.20;0.20;;;-2.70;99.90;;;;;;5009414;28;20358;-72
2022/12/15 10:37:30;;;;;;;0.20;0.20;;;-2.50;99.90;;;;;;5007131;28;20207;-73
2022/12/15 10:39:57;;;;;;;0.20;0.20;;;-2.30;99.90;;;;;;5008908;28;20287;-72
2022/12/15 10:42:26;;;;;;;0.20;0.20;;;-2.00;99.90;;;;;;5030406;28;20226;-73
2022/12/15 10:44:54;;;;;;;0.20;0.20;;;-2.00;99.90;;;;;;5009097;28;20204;-72
2022/12/15 10:47:23;;;;;;;0.20;0.20;;;-1.50;99.90;;;;;;5017900;28;20220;-72
2022/12/15 10:49:50;;;;;;;0.20;0.20;;;-1.30;99.90;;;;;;5007232;28;20290;-72
2022/12/15 10:52:26;;;;;;;0.20;0.20;;;-1.40;99.90;;;;;;5008648;28;20200;-73
2022/12/15 10:54:56;;;;;;;0.20;0.20;;;-1.30;99.90;;;;;;5015630;28;20230;-72
2022/12/15 10:57:27;;;;;;;0.20;0.20;;;-1.20;99.90;;;;;;5009941;28;20224;-72
2022/12/15 10:59:55;;;;;;;0.20;0.20;;;-1.10;99.90;;;;;;5023865;28;20199;-72
2022/12/15 11:02:35;;;;;;;0.20;0.20;;;-1.00;99.90;;;;;;5008252;28;20206;-73
2022/12/15 11:05:05;;;;;;;0.10;0.10;;;-0.90;99.90;;;;;;5010038;28;20192;-73
2022/12/15 11:07:36;;;;;;;0.20;0.20;;;-0.80;99.90;;;;;;5019981;28;20192;-72
2022/12/15 11:10:16;;;;;;;0.20;0.20;;;-0.80;99.90;;;;;;5025071;28;20240;-73
2022/12/15 11:12:52;;;;;;;0.20;0.20;;;-0.90;99.90;;;;;;5038007;28;20187;-72
2022/12/15 11:15:42;;;;;;;0.20;0.20;;;-1.10;99.90;;;;;;5044084;28;20298;-73
2022/12/15 11:18:35;;;;;;;0.17;0.17;;;-1.20;99.90;;;;;;5012993;28;20191;-73
2022/12/15 11:21:07;;;;;;;0.20;0.20;;;-1.30;99.90;;;;;;4999107;28;20290;-73
2022/12/15 11:23:50;;;;;;;0.20;0.20;;;-1.30;99.90;;;;;;5027556;28;20642;-72
2022/12/15 11:26:30;;;;;;;0.20;0.20;;;-1.30;99.90;;;;;;5025897;28;20222;-73
2022/12/15 11:29:01;;;;;;;0.20;0.20;;;-1.20;99.90;;;;;;5024496;28;20200;-72
2022/12/15 11:31:34;;;;;;;0.20;0.20;;;-1.10;99.90;;;;;;5014523;28;20621;-72
2022/12/15 11:34:02;;;;;;;0.20;0.20;;;-1.10;99.90;;;;;;4990864;28;20761;-72
2022/12/15 11:37:12;;;;;;;0.20;0.20;;;-1.10;99.90;;;;;;5009018;28;20213;-73
2022/12/15 11:39:58;;;;;;;0.20;0.20;;;-1.10;99.90;;;;;;4961844;28;20259;-72
2022/12/15 11:42:42;;;;;;;0.20;0.20;;;-1.10;99.90;;;;;;5025400;28;20199;-72
2022/12/15 11:45:18;;;;;;;0.10;0.10;;;-1.10;99.90;;;;;;5010428;28;20192;-72
2022/12/15 11:47:51;;;;;;;0.20;0.20;;;-1.10;99.90;;;;;;5025007;28;20195;-72
2022/12/15 11:50:30;;;;;;;0.20;0.20;;;-1.10;99.90;;;;;;5012729;28;20192;-73
2022/12/15 11:53:14;;;;;;;0.20;0.20;;;-1.10;99.90;;;;;;5027768;28;20188;-72
2022/12/15 11:55:52;;;;;;;0.20;0.20;;;-1.00;99.90;;;;;;5028207;28;20220;-72
2022/12/15 11:58:47;;;;;;;0.20;0.20;;;-0.90;99.90;;;;;;5010895;28;20196;-72
2022/12/15 12:01:25;;;;;;;0.20;0.20;;;-0.80;99.90;;;;;;5022503;28;20257;-72
2022/12/15 12:04:04;;;;;;;0.20;0.20;;;-0.80;99.90;;;;;;5002879;28;20243;-73
2022/12/15 12:06:38;;;;;;;0.20;0.20;;;-0.70;99.90;;;;;;5025323;28;20231;-72
2022/12/15 12:09:28;;;;;;;0.20;0.20;;;-0.60;99.90;;;;;;4990067;28;20196;-71
2022/12/15 12:12:01;;;;;;;0.20;0.20;;;-0.60;99.90;;;;;;5010349;28;20207;-69
2022/12/15 12:14:44;;;;;;;0.13;0.13;;;-0.60;99.90;;;;;;4990079;28;20243;-70
2022/12/15 12:17:18;;;;;;;0.20;0.20;;;-0.50;99.90;;;;;;5009015;28;20219;-71
2022/12/15 12:19:49;;;;;;;0.20;0.20;;;-0.60;99.90;;;;;;5008889;28;20211;-70
2022/12/15 12:22:28;;;;;;;0.20;0.20;;;-0.60;99.90;;;;;;4996469;28;20199;-70
2022/12/15 12:25:00;;;;;;;0.20;0.20;;;-0.70;99.90;;;;;;5009984;28;20208;-70
2022/12/15 12:27:35;;;;;;;0.20;0.20;;;-0.70;99.90;;;;;;5011026;28;20244;-70
2022/12/15 12:30:11;;;;;;;0.20;0.20;;;-0.70;99.90;;;;;;5007663;28;20196;-70
2022/12/15 12:32:47;;;;;;;0.20;0.20;;;-0.70;99.90;;;;;;4992595;28;20224;-72
2022/12/15 12:35:18;;;;;;;0.20;0.20;;;-0.80;99.90;;;;;;4992586;28;20315;-71
2022/12/15 12:37:58;;;;;;;0.10;0.10;;;-0.70;99.90;;;;;;4988041;28;20214;-71
2022/12/15 12:40:33;;;;;;;0.20;0.20;;;-0.80;99.90;;;;;;4995255;28;20616;-70
2022/12/15 12:43:00;;;;;;;0.15;0.15;;;-0.70;99.90;;;;;;5007836;28;20203;-71
2022/12/15 12:45:33;;;;;;;0.10;0.10;;;-0.70;99.90;;;;;;4994287;28;20223;-70
2022/12/15 12:48:07;;;;;;;0.20;0.20;;;-0.70;99.90;;;;;;4991430;28;20600;-71
2022/12/15 12:50:34;;;;;;;0.20;0.20;;;-0.60;99.90;;;;;;5009160;28;20273;-71
2022/12/15 12:53:03;;;;;;;0.20;0.20;;;-0.50;99.90;;;;;;5009490;28;20216;-71
2022/12/15 12:55:38;;;;;;;0.20;0.20;;;-0.40;99.90;;;;;;4990430;28;20232;-70
2022/12/15 12:58:32;;;;;;;0.20;0.20;;;-0.40;99.90;;;;;;5009618;28;20201;-71
2022/12/15 13:01:25;;;;;;;0.20;0.20;;;-0.40;99.90;;;;;;4997892;28;20276;-70
2022/12/15 13:04:07;;;;;;;0.20;0.20;;;-0.60;99.90;;;;;;4988860;28;20216;-70
2022/12/15 13:06:57;;;;;;;0.10;0.10;;;-0.20;99.90;;;;;;4990294;28;20310;-70
2022/12/15 13:09:36;;;;;;;0.20;0.20;;;-0.30;99.90;;;;;;4991418;28;20214;-70
2022/12/15 13:12:03;;;;;;;0.20;0.20;;;-0.20;99.90;;;;;;5011164;28;20218;-70
2022/12/15 13:14:48;;;;;;;0.20;0.20;;;-0.20;99.90;;;;;;4998821;28;20303;-70
2022/12/15 13:17:26;;;;;;;0.20;0.20;;;-0.20;99.90;;;;;;5013235;28;20283;-70
2022/12/15 13:20:24;;;;;;;0.10;0.10;;;-0.20;99.90;;;;;;4990950;28;20273;-70
2022/12/15 13:22:52;;;;;;;0.10;0.10;;;-0.20;99.90;;;;;;5007343;28;20300;-70
2022/12/15 13:25:44;;;;;;;0.20;0.20;;;-0.20;99.90;;;;;;4992093;28;20227;-70
2022/12/15 13:28:27;;;;;;;0.17;0.17;;;-0.30;99.90;;;;;;5008953;28;21180;-70
2022/12/15 13:31:27;;;;;;;0.20;0.20;;;-0.60;99.90;;;;;;4990187;28;20208;-70
2022/12/15 13:34:11;;;;;;;0.20;0.20;;;-0.30;99.90;;;;;;5009150;28;20192;-70
2022/12/15 13:37:07;;;;;;;0.20;0.20;;;-0.40;99.90;;;;;;5012348;28;20212;-70
2022/12/15 13:39:57;;;;;;;0.20;0.20;;;-0.40;99.90;;;;;;4958742;28;20208;-69
2022/12/15 13:42:34;;;;;;;0.20;0.20;;;-0.50;99.90;;;;;;5003973;28;20227;-70
2022/12/15 13:45:38;;;;;;;0.20;0.20;;;-0.50;99.90;;;;;;5009502;28;20191;-70
2022/12/15 13:48:37;;;;;;;0.10;0.10;;;-0.50;99.90;;;;;;4995536;28;20203;-70
2022/12/15 13:51:29;;;;;;;0.20;0.20;;;-0.50;99.90;;;;;;5013702;28;20231;-70
2022/12/15 13:54:00;;;;;;;0.13;0.13;;;-0.70;99.90;;;;;;4997891;28;20231;-70
2022/12/15 13:56:53;;;;;;;0.10;0.10;;;-0.60;99.90;;;;;;4991641;28;20224;-70
2022/12/15 13:59:28;;;;;;;0.10;0.10;;;-0.80;99.90;;;;;;4996669;28;20501;-70
2022/12/15 14:01:55;;;;;;;0.20;0.20;;;-0.80;99.90;;;;;;4997992;28;20207;-70
2022/12/15 14:04:22;;;;;;;0.20;0.20;;;-0.50;99.90;;;;;;5008922;28;20192;-70
2022/12/15 14:06:53;;;;;;;0.20;0.20;;;-0.80;99.90;;;;;;4992294;28;20229;-70
2022/12/15 14:09:25;;;;;;;0.13;0.13;;;-0.90;99.90;;;;;;4991752;28;20208;-70
2022/12/15 14:11:52;;;;;;;0.20;0.20;;;-0.90;99.90;;;;;;5011232;28;20208;-70
2022/12/15 14:14:23;;;;;;;0.10;0.10;;;-1.00;99.90;;;;;;5006904;28;20220;-70
2022/12/15 14:16:54;;;;;;;0.20;0.20;;;-1.00;99.90;;;;;;4990899;28;20235;-70
2022/12/15 14:19:21;;;;;;;0.20;0.20;;;-1.00;99.90;;;;;;4993703;28;20214;-69
2022/12/15 14:21:52;;;;;;;0.20;0.20;;;-1.20;99.90;;;;;;4988488;28;20220;-69
2022/12/15 14:24:30;;;;;;;0.15;0.15;;;-1.10;99.90;;;;;;5007625;28;20222;-69
2022/12/15 14:26:57;;;;;;;0.15;0.15;;;-1.30;99.90;;;;;;5006681;28;20215;-70
2022/12/15 14:29:25;;;;;;;0.20;0.20;;;-1.10;99.90;;;;;;4989540;28;20214;-69
2022/12/15 14:31:55;;;;;;;0.10;0.10;;;-1.20;99.90;;;;;;5005216;28;20212;-70
2022/12/15 14:34:27;;;;;;;0.10;0.10;;;-1.20;99.90;;;;;;5008488;28;20240;-69
2022/12/15 14:36:57;;;;;;;0.10;0.10;;;-1.20;99.90;;;;;;5004646;28;20299;-71
2022/12/15 14:39:29;;;;;;;0.20;0.20;;;-1.30;99.90;;;;;;4990834;28;20203;-71
2022/12/15 14:41:57;;;;;;;0.20;0.20;;;-1.30;99.90;;;;;;5006163;28;20196;-71
2022/12/15 14:44:30;;;;;;;0.20;0.20;;;-1.40;99.90;;;;;;4994693;28;20205;-71
2022/12/15 14:46:58;;;;;;;0.20;0.20;;;-1.40;99.90;;;;;;4995002;28;20223;-71
2022/12/15 14:49:29;;;;;;;0.20;0.20;;;-1.40;99.90;;;;;;5014666;28;20215;-71
2022/12/15 14:52:01;;;;;;;0.10;0.10;;;-1.50;99.90;;;;;;5002051;28;20226;-71
2022/12/15 14:54:34;;;;;;;0.20;0.20;;;-1.60;99.90;;;;;;4996900;28;20227;-71
2022/12/15 14:57:04;;;;;;;0.20;0.20;;;-1.60;99.90;;;;;;5010972;28;20303;-71
2022/12/15 14:59:34;;;;;;;0.20;0.20;;;-1.60;99.90;;;;;;4996734;28;20196;-71
2022/12/15 15:02:12;;;;;;;0.20;0.20;;;-1.70;99.90;;;;;;5014078;28;20208;-72
2022/12/15 15:04:40;;;;;;;0.20;0.20;;;-1.70;99.90;;;;;;4994832;28;20208;-71
2022/12/15 15:07:17;;;;;;;0.20;0.20;;;-1.80;99.90;;;;;;4994605;28;20237;-71
2022/12/15 15:09:46;;;;;;;0.20;0.20;;;-1.90;99.90;;;;;;4997035;28;20295;-71
2022/12/15 15:12:16;;;;;;;0.20;0.20;;;-1.90;99.90;;;;;;5013142;28;20204;-71
2022/12/15 15:14:48;;;;;;;0.10;0.10;;;-2.00;99.90;;;;;;5010350;28;20220;-72
2022/12/15 15:17:23;;;;;;;0.20;0.20;;;-2.00;99.90;;;;;;4992001;28;20266;-71
2022/12/15 15:19:54;;;;;;;0.20;0.20;;;-2.10;99.90;;;;;;5000961;28;20311;-71
2022/12/15 15:22:35;;;;;;;0.10;0.10;;;-2.10;99.90;;;;;;4993713;28;20231;-70
2022/12/15 15:25:18;;;;;;;0.20;0.20;;;-2.20;99.90;;;;;;4992827;28;20200;-70
2022/12/15 15:27:46;;;;;;;0.20;0.20;;;-2.20;99.90;;;;;;5010769;28;20240;-71
2022/12/15 15:30:20;;;;;;;0.20;0.20;;;-2.20;99.90;;;;;;4996876;28;20211;-70
2022/12/15 15:32:55;;;;;;;0.20;0.20;;;-2.30;99.90;;;;;;5008424;28;20196;-71
2022/12/15 15:35:23;;;;;;;0.20;0.20;;;-2.30;99.90;;;;;;5008354;28;20249;-71
2022/12/15 15:37:53;;;;;;;0.20;0.20;;;-2.40;99.90;;;;;;4991558;28;20218;-70
2022/12/15 15:40:20;;;;;;;0.20;0.20;;;-2.40;99.90;;;;;;5012485;28;20204;-70